createdAt,value
2022-07-29T00:00:14.036Z,100997.53
2022-07-29T00:01:19.443Z,100995.22
2022-07-29T00:02:23.685Z,100995.31
2022-07-29T00:03:25.554Z,100994.91
2022-07-29T00:04:27.369Z,100997.25
2022-07-29T00:05:29.535Z,100995.13
2022-07-29T00:06:31.208Z,101000.94
2022-07-29T00:07:32.911Z,100995.00
2022-07-29T00:08:34.769Z,100986.69
2022-07-29T00:09:50.539Z,100984.16
2022-07-29T00:10:53.078Z,100980.50
2022-07-29T00:11:57.789Z,100988.63
2022-07-29T00:12:59.546Z,100995.31
2022-07-29T00:14:01.507Z,100997.94
2022-07-29T00:15:04.284Z,100993.28
2022-07-29T00:16:06.070Z,100999.78
2022-07-29T00:17:07.779Z,101001.72
2022-07-29T00:18:09.403Z,100998.25
2022-07-29T00:19:11.228Z,101001.41
2022-07-29T00:20:14.231Z,100995.31
2022-07-29T00:21:16.108Z,101002.75
2022-07-29T00:22:18.072Z,101003.31
2022-07-29T00:23:19.716Z,100993.72
2022-07-29T00:24:21.508Z,100997.59
2022-07-29T00:25:23.170Z,100994.41
2022-07-29T00:26:24.886Z,101001.59
2022-07-29T00:27:26.688Z,100992.19
2022-07-29T00:28:28.347Z,100988.28
2022-07-29T00:29:34.698Z,100985.69
2022-07-29T00:30:36.777Z,100978.81
2022-07-29T00:31:38.755Z,100978.28
2022-07-29T00:32:40.638Z,100971.03
2022-07-29T00:33:42.351Z,100981.88
2022-07-29T00:35:02.880Z,100981.59
2022-07-29T00:36:05.138Z,100978.97
2022-07-29T00:37:07.941Z,100973.84
2022-07-29T00:38:10.535Z,100972.88
2022-07-29T00:39:12.139Z,100973.09
2022-07-29T00:40:13.779Z,100979.19
2022-07-29T00:41:16.710Z,100974.38
2022-07-29T00:42:18.502Z,100979.88
2022-07-29T00:43:20.350Z,100991.50
2022-07-29T00:44:22.018Z,100979.97
2022-07-29T00:45:23.771Z,100982.28
2022-07-29T00:46:25.564Z,100974.56
2022-07-29T00:47:27.202Z,100972.25
2022-07-29T00:48:29.001Z,100978.81
2022-07-29T00:49:30.626Z,100977.66
2022-07-29T00:50:33.361Z,100979.78
2022-07-29T00:51:39.291Z,100979.78
2022-07-29T00:52:43.082Z,100971.16
2022-07-29T00:53:45.256Z,100976.13
2022-07-29T00:54:47.153Z,100968.84
2022-07-29T00:55:48.973Z,100968.47
2022-07-29T00:56:50.870Z,100970.78
2022-07-29T00:57:53.768Z,100968.78
2022-07-29T00:58:57.466Z,100967.88
2022-07-29T00:59:59.237Z,100964.19
2022-07-29T01:01:01.010Z,100970.22
2022-07-29T01:02:04.347Z,100965.75
2022-07-29T01:03:08.420Z,100965.47
2022-07-29T01:04:10.206Z,100964.69
2022-07-29T01:05:13.725Z,100962.38
2022-07-29T01:06:17.486Z,100968.25
2022-07-29T01:07:19.332Z,100960.91
2022-07-29T01:08:21.739Z,100962.59
2022-07-29T01:09:42.175Z,100954.16
2022-07-29T01:10:47.953Z,100960.06
2022-07-29T01:11:54.127Z,100955.81
2022-07-29T01:12:59.446Z,100953.19
2022-07-29T01:14:02.332Z,100952.31
2022-07-29T01:15:07.078Z,100953.00
2022-07-29T01:16:22.181Z,100951.63
2022-07-29T01:17:40.027Z,100943.22
2022-07-29T01:19:01.891Z,100938.31
2022-07-29T01:20:18.042Z,100935.41
2022-07-29T01:21:44.943Z,100941.88
2022-07-29T01:23:01.778Z,100939.59
2022-07-29T01:24:18.796Z,100933.59
2022-07-29T01:25:53.118Z,100934.09
2022-07-29T01:27:20.510Z,100925.38
2022-07-29T01:28:41.167Z,100933.34
2022-07-29T01:29:55.011Z,100929.47
2022-07-29T01:30:57.787Z,100936.31
2022-07-29T01:32:08.447Z,100940.84
2022-07-29T01:33:41.679Z,100931.19
2022-07-29T01:34:49.379Z,100930.50
2022-07-29T01:35:52.308Z,100922.84
2022-07-29T01:37:05.125Z,100920.31
2022-07-29T01:38:13.737Z,100921.00
2022-07-29T01:39:20.882Z,100915.59
2022-07-29T01:40:30.145Z,100915.59
2022-07-29T01:41:36.044Z,100917.13
2022-07-29T01:42:45.187Z,100914.91
2022-07-29T01:44:00.355Z,100918.28
2022-07-29T01:45:39.685Z,100918.88
2022-07-29T01:46:49.603Z,100918.75
2022-07-29T01:47:55.900Z,100919.44
2022-07-29T01:49:19.957Z,100918.84
2022-07-29T01:50:27.651Z,100909.00
2022-07-29T01:51:34.044Z,100916.16
2022-07-29T01:52:43.454Z,100915.38
2022-07-29T01:53:55.093Z,100917.22
2022-07-29T01:55:00.260Z,100906.38
2022-07-29T01:56:03.946Z,100908.63
2022-07-29T01:57:09.332Z,100911.91
2022-07-29T01:58:13.235Z,100909.09
2022-07-29T01:59:17.263Z,100905.63
2022-07-29T02:00:19.974Z,100903.34
2022-07-29T02:01:25.241Z,100910.22
2022-07-29T02:02:29.014Z,100911.56
2022-07-29T02:03:33.529Z,100920.56
2022-07-29T02:04:37.825Z,100907.31
2022-07-29T02:05:43.553Z,100906.06
2022-07-29T02:06:48.033Z,100906.59
2022-07-29T02:07:51.926Z,100904.53
2022-07-29T02:08:54.319Z,100906.34
2022-07-29T02:09:58.269Z,100907.22
2022-07-29T02:11:03.181Z,100897.56
2022-07-29T02:12:06.827Z,100895.63
2022-07-29T02:13:10.592Z,100892.63
2022-07-29T02:14:15.817Z,100898.81
2022-07-29T02:15:19.081Z,100897.75
2022-07-29T02:16:22.793Z,100883.16
2022-07-29T02:17:33.625Z,100898.41
2022-07-29T02:18:38.720Z,100892.16
2022-07-29T02:19:44.167Z,100889.81
2022-07-29T02:20:49.370Z,100905.56
2022-07-29T02:21:54.561Z,100890.38
2022-07-29T02:22:59.682Z,100900.25
2022-07-29T02:24:02.849Z,100900.63
2022-07-29T02:25:06.532Z,100902.97
2022-07-29T02:26:18.035Z,100895.63
2022-07-29T02:27:23.521Z,100893.84
2022-07-29T02:28:28.727Z,100890.38
2022-07-29T02:29:33.327Z,100897.00
2022-07-29T02:30:40.009Z,100898.41
2022-07-29T02:31:44.719Z,100891.38
2022-07-29T02:32:48.557Z,100899.47
2022-07-29T02:33:52.816Z,100892.22
2022-07-29T02:34:55.175Z,100897.56
2022-07-29T02:35:59.486Z,100888.56
2022-07-29T02:37:01.992Z,100887.78
2022-07-29T02:38:23.368Z,100890.22
2022-07-29T02:39:27.647Z,100892.81
2022-07-29T02:40:29.523Z,100894.94
2022-07-29T02:41:53.372Z,100900.44
2022-07-29T02:42:55.765Z,100890.00
2022-07-29T02:44:03.796Z,100894.25
2022-07-29T02:45:06.766Z,100901.09
2022-07-29T02:46:28.795Z,100896.28
2022-07-29T02:47:41.500Z,100896.69
2022-07-29T02:48:53.145Z,100888.56
2022-07-29T02:49:58.802Z,100886.34
2022-07-29T02:51:09.048Z,100886.16
2022-07-29T02:52:20.947Z,100883.84
2022-07-29T02:53:27.873Z,100879.97
2022-07-29T02:55:11.196Z,100885.47
2022-07-29T02:56:16.813Z,100887.41
2022-07-29T02:57:34.110Z,100885.66
2022-07-29T02:58:41.547Z,100888.25
2022-07-29T02:59:46.155Z,100884.38
2022-07-29T03:00:49.988Z,100889.22
2022-07-29T03:01:53.330Z,100891.84
2022-07-29T03:02:57.580Z,100890.69
2022-07-29T03:04:04.881Z,100890.13
2022-07-29T03:05:10.463Z,100893.38
2022-07-29T03:06:28.537Z,100896.78
2022-07-29T03:07:36.933Z,100897.16
2022-07-29T03:08:38.825Z,100892.53
2022-07-29T03:09:42.937Z,100905.66
2022-07-29T03:10:48.078Z,100893.78
2022-07-29T03:11:51.117Z,100895.84
2022-07-29T03:12:53.203Z,100889.81
2022-07-29T03:13:55.765Z,100900.25
2022-07-29T03:14:58.843Z,100904.41
2022-07-29T03:16:01.479Z,100901.59
2022-07-29T03:17:03.776Z,100895.13
2022-07-29T03:18:07.088Z,100895.91
2022-07-29T03:19:08.978Z,100891.75
2022-07-29T03:20:12.063Z,100899.66
2022-07-29T03:21:13.924Z,100893.97
2022-07-29T03:22:15.781Z,100898.81
2022-07-29T03:23:23.797Z,100889.81
2022-07-29T03:24:27.798Z,100895.63
2022-07-29T03:25:29.792Z,100894.06
2022-07-29T03:26:31.555Z,100900.44
2022-07-29T03:27:33.311Z,100897.63
2022-07-29T03:28:34.965Z,100896.19
2022-07-29T03:29:38.696Z,100905.06
2022-07-29T03:30:40.516Z,100903.13
2022-07-29T03:31:46.181Z,100902.34
2022-07-29T03:32:48.136Z,100894.84
2022-07-29T03:33:49.740Z,100902.28
2022-07-29T03:34:51.681Z,100902.75
2022-07-29T03:35:53.484Z,100901.50
2022-07-29T03:36:55.134Z,100901.19
2022-07-29T03:37:56.913Z,100899.53
2022-07-29T03:38:58.855Z,100897.19
2022-07-29T03:40:02.500Z,100895.72
2022-07-29T03:41:08.726Z,100895.03
2022-07-29T03:42:14.903Z,100897.75
2022-07-29T03:43:18.950Z,100899.72
2022-07-29T03:44:22.685Z,100895.75
2022-07-29T03:45:26.438Z,100895.38
2022-07-29T03:46:30.717Z,100895.69
2022-07-29T03:47:35.530Z,100900.41
2022-07-29T03:48:57.474Z,100895.91
2022-07-29T03:50:05.394Z,100901.81
2022-07-29T03:51:08.291Z,100899.91
2022-07-29T03:52:10.150Z,100902.41
2022-07-29T03:53:12.252Z,100903.16
2022-07-29T03:54:14.990Z,100896.63
2022-07-29T03:55:17.333Z,100900.63
2022-07-29T03:56:22.492Z,100900.25
2022-07-29T03:57:28.387Z,100897.91
2022-07-29T03:58:32.632Z,100902.63
2022-07-29T03:59:35.461Z,100904.56
2022-07-29T04:00:38.659Z,100903.78
2022-07-29T04:01:41.363Z,100898.09
2022-07-29T04:02:49.229Z,100904.97
2022-07-29T04:03:52.077Z,100904.19
2022-07-29T04:04:54.244Z,100898.88
2022-07-29T04:06:03.933Z,100904.19
2022-07-29T04:07:06.107Z,100900.47
2022-07-29T04:08:07.945Z,100899.25
2022-07-29T04:09:10.725Z,100900.97
2022-07-29T04:10:12.788Z,100899.03
2022-07-29T04:11:14.612Z,100907.53
2022-07-29T04:12:16.496Z,100900.19
2022-07-29T04:13:18.199Z,100900.09
2022-07-29T04:14:20.011Z,100901.16
2022-07-29T04:15:21.842Z,100897.47
2022-07-29T04:16:23.551Z,100896.63
2022-07-29T04:17:25.407Z,100900.88
2022-07-29T04:18:27.095Z,100894.63
2022-07-29T04:19:28.934Z,100891.75
2022-07-29T04:20:30.766Z,100889.16
2022-07-29T04:21:37.472Z,100890.22
2022-07-29T04:22:39.158Z,100893.38
2022-07-29T04:23:52.813Z,100887.53
2022-07-29T04:24:57.109Z,100896.91
2022-07-29T04:26:02.272Z,100899.13
2022-07-29T04:27:04.194Z,100894.66
2022-07-29T04:28:06.579Z,100893.47
2022-07-29T04:29:08.463Z,100890.34
2022-07-29T04:30:10.270Z,100896.25
2022-07-29T04:31:12.958Z,100899.97
2022-07-29T04:32:14.958Z,100890.06
2022-07-29T04:33:17.530Z,100894.06
2022-07-29T04:34:19.926Z,100898.84
2022-07-29T04:35:21.909Z,100890.03
2022-07-29T04:36:29.075Z,100892.03
2022-07-29T04:37:31.497Z,100888.31
2022-07-29T04:38:33.172Z,100884.81
2022-07-29T04:39:34.939Z,100886.16
2022-07-29T04:40:38.643Z,100892.28
2022-07-29T04:41:40.416Z,100893.53
2022-07-29T04:42:46.708Z,100897.22
2022-07-29T04:43:49.506Z,100898.00
2022-07-29T04:44:51.507Z,100898.09
2022-07-29T04:45:53.714Z,100897.44
2022-07-29T04:46:55.510Z,100893.09
2022-07-29T04:47:57.880Z,100887.31
2022-07-29T04:48:59.717Z,100895.06
2022-07-29T04:50:01.529Z,100903.84
2022-07-29T04:51:03.173Z,100902.66
2022-07-29T04:52:05.481Z,100894.63
2022-07-29T04:53:08.613Z,100898.47
2022-07-29T04:54:10.531Z,100903.28
2022-07-29T04:55:12.531Z,100900.22
2022-07-29T04:56:14.352Z,100896.22
2022-07-29T04:57:16.149Z,100897.03
2022-07-29T04:58:17.955Z,100892.53
2022-07-29T04:59:19.813Z,100894.75
2022-07-29T05:00:21.498Z,100893.22
2022-07-29T05:01:29.984Z,100889.91
2022-07-29T05:02:31.752Z,100885.03
2022-07-29T05:03:33.563Z,100892.38
2022-07-29T05:04:35.399Z,100886.56
2022-07-29T05:05:37.188Z,100887.44
2022-07-29T05:06:39.008Z,100883.19
2022-07-29T05:07:40.722Z,100884.84
2022-07-29T05:08:42.567Z,100876.91
2022-07-29T05:09:44.233Z,100882.91
2022-07-29T05:10:46.426Z,100880.75
2022-07-29T05:11:48.116Z,100877.56
2022-07-29T05:12:49.798Z,100870.66
2022-07-29T05:13:51.590Z,100872.09
2022-07-29T05:14:53.246Z,100871.75
2022-07-29T05:15:55.630Z,100871.66
2022-07-29T05:16:58.109Z,100876.56
2022-07-29T05:18:00.139Z,100871.53
2022-07-29T05:19:01.835Z,100874.13
2022-07-29T05:20:03.897Z,100878.06
2022-07-29T05:21:05.706Z,100880.19
2022-07-29T05:22:07.334Z,100883.56
2022-07-29T05:23:09.032Z,100878.34
2022-07-29T05:24:10.855Z,100877.25
2022-07-29T05:25:12.662Z,100881.53
2022-07-29T05:26:14.464Z,100872.75
2022-07-29T05:27:16.122Z,100885.03
2022-07-29T05:28:18.018Z,100874.50
2022-07-29T05:29:43.187Z,100883.28
2022-07-29T05:30:41.683Z,100882.06
2022-07-29T05:31:43.500Z,100884.56
2022-07-29T05:32:45.447Z,100881.06
2022-07-29T05:33:47.121Z,100883.41
2022-07-29T05:34:50.243Z,100882.44
2022-07-29T05:35:56.210Z,100882.25
2022-07-29T05:37:00.462Z,100889.31
2022-07-29T05:38:02.166Z,100882.16
2022-07-29T05:39:03.840Z,100885.16
2022-07-29T05:40:06.899Z,100886.47
2022-07-29T05:41:08.559Z,100888.78
2022-07-29T05:42:11.059Z,100885.16
2022-07-29T05:43:12.715Z,100890.16
2022-07-29T05:44:15.084Z,100886.06
2022-07-29T05:45:16.980Z,100892.81
2022-07-29T05:46:18.779Z,100891.13
2022-07-29T05:47:20.743Z,100890.16
2022-07-29T05:48:22.587Z,100890.50
2022-07-29T05:49:27.257Z,100887.13
2022-07-29T05:50:29.219Z,100892.38
2022-07-29T05:51:31.244Z,100889.25
2022-07-29T05:52:32.886Z,100890.06
2022-07-29T05:53:34.662Z,100890.38
2022-07-29T05:54:36.911Z,100891.59
2022-07-29T05:55:38.812Z,100891.00
2022-07-29T05:56:41.135Z,100891.44
2022-07-29T05:57:44.434Z,100891.44
2022-07-29T05:58:46.245Z,100886.66
2022-07-29T05:59:48.294Z,100890.44
2022-07-29T06:00:50.179Z,100889.38
2022-07-29T06:01:51.906Z,100898.06
2022-07-29T06:02:53.770Z,100891.19
2022-07-29T06:03:55.655Z,100890.75
2022-07-29T06:04:57.424Z,100891.97
2022-07-29T06:05:59.089Z,100888.19
2022-07-29T06:07:00.757Z,100895.16
2022-07-29T06:08:02.681Z,100890.38
2022-07-29T06:09:12.259Z,100894.28
2022-07-29T06:10:14.587Z,100894.38
2022-07-29T06:11:16.279Z,100892.78
2022-07-29T06:12:18.168Z,100897.53
2022-07-29T06:13:19.847Z,100895.34
2022-07-29T06:14:21.537Z,100893.91
2022-07-29T06:15:23.526Z,100891.34
2022-07-29T06:16:29.926Z,100893.00
2022-07-29T06:17:32.839Z,100899.50
2022-07-29T06:18:34.482Z,100901.34
2022-07-29T06:19:37.176Z,100891.00
2022-07-29T06:20:39.121Z,100896.00
2022-07-29T06:21:44.925Z,100901.56
2022-07-29T06:22:46.720Z,100897.97
2022-07-29T06:23:48.470Z,100894.63
2022-07-29T06:24:50.789Z,100902.75
2022-07-29T06:25:52.659Z,100902.25
2022-07-29T06:26:54.325Z,100897.13
2022-07-29T06:27:55.958Z,100897.78
2022-07-29T06:28:57.612Z,100899.75
2022-07-29T06:29:59.391Z,100897.00
2022-07-29T06:31:01.270Z,100909.69
2022-07-29T06:32:03.509Z,100907.13
2022-07-29T06:33:05.522Z,100902.75
2022-07-29T06:34:07.503Z,100906.53
2022-07-29T06:35:37.619Z,100905.56
2022-07-29T06:36:31.941Z,100903.50
2022-07-29T06:37:33.730Z,100907.28
2022-07-29T06:38:42.922Z,100909.06
2022-07-29T06:40:09.266Z,100912.66
2022-07-29T06:41:13.491Z,100901.53
2022-07-29T06:42:15.439Z,100907.06
2022-07-29T06:43:17.133Z,100908.66
2022-07-29T06:44:20.133Z,100908.25
2022-07-29T06:45:22.369Z,100908.72
2022-07-29T06:46:24.400Z,100901.78
2022-07-29T06:47:26.392Z,100902.75
2022-07-29T06:48:29.046Z,100910.81
2022-07-29T06:49:30.850Z,100904.34
2022-07-29T06:50:32.769Z,100902.47
2022-07-29T06:51:34.848Z,100905.81
2022-07-29T06:52:37.916Z,100900.69
2022-07-29T06:53:59.544Z,100911.16
2022-07-29T06:55:05.586Z,100912.28
2022-07-29T06:56:09.755Z,100907.91
2022-07-29T06:57:11.457Z,100899.22
2022-07-29T06:58:15.134Z,100913.88
2022-07-29T06:59:17.010Z,100906.38
2022-07-29T07:00:18.730Z,100916.53
2022-07-29T07:01:21.075Z,100911.97
2022-07-29T07:02:23.931Z,100911.91
2022-07-29T07:03:25.857Z,100911.50
2022-07-29T07:04:27.726Z,100911.06
2022-07-29T07:06:31.324Z,100907.38
2022-07-29T07:08:34.836Z,100909.00
2022-07-29T07:09:40.508Z,100923.44
2022-07-29T07:10:43.691Z,100914.38
2022-07-29T07:11:45.492Z,100913.78
2022-07-29T07:12:51.469Z,100913.47
2022-07-29T07:13:53.156Z,100914.31
2022-07-29T07:14:54.833Z,100910.00
2022-07-29T07:15:56.468Z,100905.91
2022-07-29T07:16:58.308Z,100914.56
2022-07-29T07:18:00.032Z,100917.28
2022-07-29T07:19:01.794Z,100909.81
2022-07-29T07:20:03.836Z,100901.53
2022-07-29T07:21:06.674Z,100900.44
2022-07-29T07:22:08.339Z,100905.53
2022-07-29T07:23:10.201Z,100898.63
2022-07-29T07:24:11.939Z,100900.84
2022-07-29T07:25:14.159Z,100899.22
2022-07-29T07:26:15.808Z,100898.41
2022-07-29T07:27:17.559Z,100896.59
2022-07-29T07:28:24.656Z,100906.16
2022-07-29T07:29:26.903Z,100906.94
2022-07-29T07:30:28.762Z,100902.06
2022-07-29T07:31:30.483Z,100906.88
2022-07-29T07:32:33.221Z,100909.88
2022-07-29T07:33:34.888Z,100914.56
2022-07-29T07:34:38.795Z,100908.13
2022-07-29T07:35:41.052Z,100907.63
2022-07-29T07:36:42.727Z,100900.84
2022-07-29T07:37:44.530Z,100911.63
2022-07-29T07:38:46.334Z,100899.09
2022-07-29T07:39:48.033Z,100911.19
2022-07-29T07:40:49.906Z,100908.06
2022-07-29T07:41:51.739Z,100903.97
2022-07-29T07:42:53.430Z,100913.22
2022-07-29T07:43:55.222Z,100915.59
2022-07-29T07:45:12.491Z,100904.94
2022-07-29T07:46:15.775Z,100910.69
2022-07-29T07:47:20.968Z,100911.38
2022-07-29T07:48:23.972Z,100918.69
2022-07-29T07:49:25.896Z,100910.63
2022-07-29T07:50:27.799Z,100922.91
2022-07-29T07:51:29.691Z,100911.13
2022-07-29T07:52:31.386Z,100911.84
2022-07-29T07:53:33.051Z,100914.09
2022-07-29T07:54:34.681Z,100917.94
2022-07-29T07:56:08.219Z,100911.88
2022-07-29T07:57:03.187Z,100907.50
2022-07-29T07:58:04.831Z,100910.75
2022-07-29T07:59:06.504Z,100904.78
2022-07-29T08:00:08.912Z,100906.38
2022-07-29T08:01:14.191Z,100901.25
2022-07-29T08:02:16.153Z,100902.63
2022-07-29T08:03:17.968Z,100914.22
2022-07-29T08:04:23.574Z,100904.41
2022-07-29T08:05:28.684Z,100900.44
2022-07-29T08:06:30.529Z,100900.66
2022-07-29T08:07:32.307Z,100899.06
2022-07-29T08:08:34.388Z,100903.00
2022-07-29T08:09:37.287Z,100902.19
2022-07-29T08:10:54.439Z,100906.78
2022-07-29T08:11:57.634Z,100910.56
2022-07-29T08:12:59.427Z,100901.00
2022-07-29T08:14:02.494Z,100908.91
2022-07-29T08:15:05.081Z,100904.50
2022-07-29T08:16:13.938Z,100907.16
2022-07-29T08:17:16.104Z,100898.28
2022-07-29T08:18:17.824Z,100906.47
2022-07-29T08:19:19.581Z,100904.06
2022-07-29T08:20:21.425Z,100898.19
2022-07-29T08:21:23.823Z,100910.19
2022-07-29T08:22:26.152Z,100899.75
2022-07-29T08:23:46.849Z,100903.00
2022-07-29T08:24:55.558Z,100910.25
2022-07-29T08:25:57.557Z,100909.69
2022-07-29T08:26:59.342Z,100904.75
2022-07-29T08:28:01.016Z,100912.47
2022-07-29T08:29:02.709Z,100907.94
2022-07-29T08:30:05.410Z,100912.13
2022-07-29T08:31:07.748Z,100908.22
2022-07-29T08:32:09.661Z,100907.81
2022-07-29T08:33:11.408Z,100915.22
2022-07-29T08:34:13.522Z,100912.06
2022-07-29T08:35:15.139Z,100914.06
2022-07-29T08:36:16.924Z,100905.22
2022-07-29T08:37:18.673Z,100910.22
2022-07-29T08:38:20.407Z,100914.56
2022-07-29T08:39:22.306Z,100908.09
2022-07-29T08:40:32.081Z,100910.53
2022-07-29T08:41:37.060Z,100904.66
2022-07-29T08:42:39.076Z,100910.13
2022-07-29T08:43:42.027Z,100907.53
2022-07-29T08:44:44.225Z,100910.66
2022-07-29T08:45:53.184Z,100909.28
2022-07-29T08:46:55.079Z,100908.13
2022-07-29T08:47:57.832Z,100907.13
2022-07-29T08:48:59.653Z,100913.09
2022-07-29T08:50:01.324Z,100905.47
2022-07-29T08:51:04.724Z,100907.06
2022-07-29T08:52:07.906Z,100898.16
2022-07-29T08:53:15.185Z,100901.00
2022-07-29T08:54:21.965Z,100900.81
2022-07-29T08:55:23.926Z,100905.81
2022-07-29T08:56:25.584Z,100888.88
2022-07-29T08:57:30.619Z,100901.75
2022-07-29T08:58:36.955Z,100904.91
2022-07-29T08:59:44.733Z,100902.66
2022-07-29T09:00:55.374Z,100900.78
2022-07-29T09:02:00.699Z,100897.34
2022-07-29T09:03:04.130Z,100891.47
2022-07-29T09:04:10.943Z,100890.25
2022-07-29T09:05:12.835Z,100894.88
2022-07-29T09:06:19.222Z,100900.47
2022-07-29T09:07:21.049Z,100896.94
2022-07-29T09:08:26.228Z,100896.88
2022-07-29T09:09:28.084Z,100900.81
2022-07-29T09:10:31.067Z,100890.91
2022-07-29T09:11:34.208Z,100894.72
2022-07-29T09:12:38.183Z,100896.03
2022-07-29T09:13:40.579Z,100888.72
2022-07-29T09:14:42.509Z,100883.94
2022-07-29T09:15:47.615Z,100887.06
2022-07-29T09:16:54.047Z,100890.25
2022-07-29T09:17:57.547Z,100889.66
2022-07-29T09:19:03.164Z,100890.25
2022-07-29T09:20:26.247Z,100881.06
2022-07-29T09:22:00.187Z,100891.59
2022-07-29T09:23:09.485Z,100883.25
2022-07-29T09:24:13.717Z,100877.06
2022-07-29T09:25:15.970Z,100880.94
2022-07-29T09:26:17.837Z,100885.41
2022-07-29T09:27:22.965Z,100884.16
2022-07-29T09:28:24.825Z,100877.72
2022-07-29T09:29:32.094Z,100886.53
2022-07-29T09:30:54.821Z,100884.38
2022-07-29T09:31:56.617Z,100873.50
2022-07-29T09:33:02.205Z,100876.50
2022-07-29T09:34:04.919Z,100873.41
2022-07-29T09:35:21.826Z,100876.09
2022-07-29T09:36:23.502Z,100869.50
2022-07-29T09:37:29.643Z,100876.16
2022-07-29T09:38:33.944Z,100874.59
2022-07-29T09:39:41.345Z,100872.00
2022-07-29T09:40:57.716Z,100873.72
2022-07-29T09:42:08.020Z,100867.66
2022-07-29T09:43:14.094Z,100874.59
2022-07-29T09:44:16.063Z,100868.41
2022-07-29T09:45:32.295Z,100870.03
2022-07-29T09:46:37.052Z,100866.81
2022-07-29T09:47:45.999Z,100867.38
2022-07-29T09:49:10.624Z,100863.66
2022-07-29T09:50:12.890Z,100864.81
2022-07-29T09:51:26.915Z,100863.38
2022-07-29T09:52:31.273Z,100871.16
2022-07-29T09:53:34.138Z,100863.22
2022-07-29T09:54:40.866Z,100864.91
2022-07-29T09:55:52.685Z,100861.91
2022-07-29T09:56:57.979Z,100866.94
2022-07-29T09:58:19.968Z,100864.03
2022-07-29T09:59:23.346Z,100862.72
2022-07-29T10:00:26.419Z,100856.78
2022-07-29T10:01:31.233Z,100856.63
2022-07-29T10:02:34.525Z,100860.97
2022-07-29T10:03:52.981Z,100860.97
2022-07-29T10:04:55.033Z,100854.50
2022-07-29T10:06:07.872Z,100855.72
2022-07-29T10:07:11.011Z,100856.56
2022-07-29T10:08:13.475Z,100854.09
2022-07-29T10:09:15.360Z,100859.47
2022-07-29T10:10:22.232Z,100858.84
2022-07-29T10:11:26.793Z,100855.91
2022-07-29T10:13:01.861Z,100857.09
2022-07-29T10:14:06.738Z,100855.25
2022-07-29T10:15:09.050Z,100859.59
2022-07-29T10:16:11.557Z,100858.06
2022-07-29T10:17:17.144Z,100862.09
2022-07-29T10:18:20.979Z,100861.13
2022-07-29T10:19:23.217Z,100860.59
2022-07-29T10:20:26.572Z,100856.72
2022-07-29T10:21:35.816Z,100854.53
2022-07-29T10:22:54.224Z,100860.00
2022-07-29T10:23:59.631Z,100851.06
2022-07-29T10:25:04.018Z,100862.03
2022-07-29T10:26:05.939Z,100856.69
2022-07-29T10:27:09.828Z,100853.31
2022-07-29T10:28:15.982Z,100850.34
2022-07-29T10:29:18.139Z,100851.03
2022-07-29T10:30:21.398Z,100854.34
2022-07-29T10:31:32.221Z,100849.50
2022-07-29T10:33:12.591Z,100857.78
2022-07-29T10:34:49.546Z,100850.94
2022-07-29T10:36:19.706Z,100841.69
2022-07-29T10:37:36.009Z,100852.22
2022-07-29T10:38:56.300Z,100840.03
2022-07-29T10:40:31.756Z,100836.13
2022-07-29T10:42:29.597Z,100854.25
2022-07-29T10:43:47.066Z,100845.47
2022-07-29T10:44:54.372Z,100843.03
2022-07-29T10:46:01.261Z,100846.50
2022-07-29T10:47:03.183Z,100850.97
2022-07-29T10:48:07.931Z,100843.38
2022-07-29T10:49:19.147Z,100842.34
2022-07-29T10:50:21.417Z,100844.72
2022-07-29T10:51:23.946Z,100841.88
2022-07-29T10:52:50.558Z,100844.84
2022-07-29T10:53:54.321Z,100841.25
2022-07-29T10:54:56.360Z,100842.19
2022-07-29T10:55:58.394Z,100844.13
2022-07-29T10:57:12.781Z,100844.84
2022-07-29T10:58:17.747Z,100849.16
2022-07-29T10:59:22.719Z,100840.31
2022-07-29T11:00:29.886Z,100834.66
2022-07-29T11:01:37.629Z,100832.72
2022-07-29T11:02:44.593Z,100828.25
2022-07-29T11:03:52.308Z,100832.03
2022-07-29T11:04:55.514Z,100837.84
2022-07-29T11:06:00.465Z,100830.22
2022-07-29T11:08:28.093Z,100829.34
2022-07-29T11:09:37.749Z,100830.56
2022-07-29T11:10:41.352Z,100825.16
2022-07-29T11:11:43.750Z,100825.22
2022-07-29T11:12:48.393Z,100826.81
2022-07-29T11:13:53.250Z,100825.63
2022-07-29T11:14:55.758Z,100826.88
2022-07-29T11:16:01.428Z,100822.66
2022-07-29T11:17:09.187Z,100825.75
2022-07-29T11:18:14.768Z,100825.13
2022-07-29T11:19:26.254Z,100824.06
2022-07-29T11:20:50.027Z,100812.81
2022-07-29T11:22:00.316Z,100819.97
2022-07-29T11:23:17.956Z,100811.38
2022-07-29T11:24:30.276Z,100820.00
2022-07-29T11:25:50.431Z,100815.72
2022-07-29T11:27:17.995Z,100813.06
2022-07-29T11:28:25.275Z,100803.00
2022-07-29T11:29:27.788Z,100811.03
2022-07-29T11:30:50.601Z,100807.53
2022-07-29T11:31:56.760Z,100814.69
2022-07-29T11:32:58.663Z,100810.50
2022-07-29T11:34:29.719Z,100814.16
2022-07-29T11:35:38.556Z,100806.19
2022-07-29T11:37:11.982Z,100808.72
2022-07-29T11:38:28.008Z,100814.91
2022-07-29T11:41:23.931Z,100804.38
2022-07-29T11:42:28.338Z,100798.56
2022-07-29T11:43:54.277Z,100795.50
2022-07-29T11:45:43.551Z,100804.84
2022-07-29T11:46:48.090Z,100796.09
2022-07-29T11:47:54.061Z,100794.06
2022-07-29T11:48:57.143Z,100792.97
2022-07-29T11:50:03.574Z,100796.31
2022-07-29T11:51:13.341Z,100803.81
2022-07-29T11:52:15.367Z,100784.97
2022-07-29T11:53:17.619Z,100793.94
2022-07-29T11:54:27.793Z,100791.31
2022-07-29T11:55:32.522Z,100788.44
2022-07-29T11:56:42.693Z,100784.53
2022-07-29T11:58:03.726Z,100792.34
2022-07-29T11:59:10.090Z,100781.84
2022-07-29T12:00:28.953Z,100787.22
2022-07-29T12:01:30.940Z,100784.28
2022-07-29T12:02:44.405Z,100775.09
2022-07-29T12:04:03.919Z,100771.44
2022-07-29T12:05:11.312Z,100779.16
2022-07-29T12:07:36.612Z,100771.09
2022-07-29T12:08:45.338Z,100773.59
2022-07-29T12:09:59.213Z,100774.97
2022-07-29T12:11:22.883Z,100778.88
2022-07-29T12:12:25.118Z,100771.13
2022-07-29T12:13:40.487Z,100781.34
2022-07-29T12:14:46.560Z,100770.97
2022-07-29T12:15:59.846Z,100775.25
2022-07-29T12:17:02.079Z,100771.53
2022-07-29T12:18:15.406Z,100772.34
2022-07-29T12:19:20.012Z,100772.38
2022-07-29T12:20:29.867Z,100764.47
2022-07-29T12:21:53.826Z,100773.59
2022-07-29T12:22:58.914Z,100769.31
2022-07-29T12:24:09.412Z,100775.19
2022-07-29T12:25:32.249Z,100769.47
2022-07-29T12:26:35.661Z,100770.50
2022-07-29T12:27:43.071Z,100768.09
2022-07-29T12:28:47.071Z,100765.19
2022-07-29T12:30:01.642Z,100766.03
2022-07-29T12:31:08.269Z,100763.97
2022-07-29T12:32:14.424Z,100771.38
2022-07-29T12:33:21.471Z,100766.91
2022-07-29T12:34:25.037Z,100763.47
2022-07-29T12:35:27.153Z,100771.56
2022-07-29T12:36:31.455Z,100766.91
2022-07-29T12:37:40.899Z,100764.16